Time,TemperatureF,DewpointF,PressureIn,WindDirection,WindDirectionDegrees,WindSpeedMPH,WindSpeedGustMPH,Humidity,HourlyPrecipIn,Conditions,Clouds,dailyrainin,SoftwareType,DateUTC
2013-11-05 00:01:00,40.5,30.4,27.85,SW,221,2.7,2.7,67,0.00,,---,0.00,VWS V14.01,2013-11-05 05:01:00,
2013-11-05 00:06:00,40.6,30.5,27.85,SSW,213,2.7,2.7,67,0.00,,---,0.00,VWS V14.01,2013-11-05 05:06:00,
2013-11-05 00:11:00,40.8,30.7,27.85,SSW,210,3.1,3.1,67,0.00,,---,0.00,VWS V14.01,2013-11-05 05:11:00,
2013-11-05 00:16:00,40.8,30.7,27.85,SSW,207,0.0,2.2,67,0.00,,---,0.00,VWS V14.01,2013-11-05 05:16:00,
2013-11-05 00:21:00,40.6,30.5,27.85,WSW,251,3.6,4.0,67,0.00,,---,0.00,VWS V14.01,2013-11-05 05:21:00,
2013-11-05 00:26:00,41.0,30.5,27.85,WSW,253,2.7,2.7,66,0.00,,---,0.00,VWS V14.01,2013-11-05 05:26:00,
2013-11-05 00:31:00,41.0,30.9,27.85,SW,235,2.2,2.2,67,0.00,,---,0.00,VWS V14.01,2013-11-05 05:31:00,
2013-11-05 00:36:00,41.2,30.7,27.85,WSW,238,2.2,2.2,66,0.00,,---,0.00,VWS V14.01,2013-11-05 05:36:00,
2013-11-05 00:41:00,41.0,30.5,27.85,WSW,238,0.0,0.0,66,0.00,,---,0.00,VWS V14.01,2013-11-05 05:41:00,
2013-11-05 00:46:00,41.0,30.9,27.85,WSW,238,2.7,2.7,67,0.00,,---,0.00,VWS V14.01,2013-11-05 05:46:00,
2013-11-05 00:51:00,41.0,30.9,27.85,WSW,238,0.0,0.0,67,0.00,,---,0.00,VWS V14.01,2013-11-05 05:51:00,
2013-11-05 00:56:00,41.0,30.5,27.85,WSW,238,0.0,2.2,66,0.00,,---,0.00,VWS V14.01,2013-11-05 05:56:00,
2013-11-05 01:01:00,41.0,30.9,27.85,ESE,115,2.7,3.6,67,0.00,,---,0.00,VWS V14.01,2013-11-05 06:01:00,
2013-11-05 01:06:00,41.0,30.9,27.85,South,172,2.7,2.7,67,0.00,,---,0.00,VWS V14.01,2013-11-05 06:06:00,
2013-11-05 01:11:00,41.2,31.1,27.85,SSW,209,2.7,2.7,67,0.00,,---,0.00,VWS V14.01,2013-11-05 06:11:00,
2013-11-05 01:16:00,41.0,30.9,27.88,SW,215,0.0,0.0,67,0.00,,---,0.00,VWS V14.01,2013-11-05 06:16:00,
2013-11-05 01:21:00,41.0,30.9,27.88,SW,217,0.0,0.0,67,0.00,,---,0.00,VWS V14.01,2013-11-05 06:21:00,
2013-11-05 01:26:00,40.6,30.5,27.88,SW,217,0.0,0.0,67,0.00,,---,0.00,VWS V14.01,2013-11-05 06:26:00,
2013-11-05 01:31:00,40.5,30.8,27.88,SW,217,0.0,0.0,68,0.00,,---,0.00,VWS V14.01,2013-11-05 06:31:00,
2013-11-05 01:36:00,40.5,30.8,27.88,SSW,196,0.0,2.2,68,0.00,,---,0.00,VWS V14.01,2013-11-05 06:36:00,
2013-11-05 01:41:00,40.3,30.6,27.88,SSW,196,0.0,0.0,68,0.00,,---,0.00,VWS V14.01,2013-11-05 06:41:00,
2013-11-05 01:46:00,40.3,30.6,27.88,SSW,196,0.0,0.0,68,0.00,,---,0.00,VWS V14.01,2013-11-05 06:46:00,
2013-11-05 01:51:00,40.5,31.1,27.88,SSW,194,0.0,0.0,69,0.00,,---,0.00,VWS V14.01,2013-11-05 06:51:00,
2013-11-05 01:56:00,40.3,30.9,27.88,SSW,194,0.0,0.0,69,0.00,,---,0.00,VWS V14.01,2013-11-05 06:56:00,
2013-11-05 02:01:00,40.3,30.6,27.85,SSW,194,0.0,0.0,68,0.00,,---,0.00,VWS V14.01,2013-11-05 07:01:00,
2013-11-05 02:06:00,40.3,30.9,27.85,South,169,0.0,0.0,69,0.00,,---,0.00,VWS V14.01,2013-11-05 07:06:00,
2013-11-05 02:11:00,40.3,30.9,27.85,SSW,196,4.0,4.0,69,0.00,,---,0.00,VWS V14.01,2013-11-05 07:11:00,
2013-11-05 02:16:00,39.9,30.6,27.88,SSW,196,0.0,0.0,69,0.00,,---,0.00,VWS V14.01,2013-11-05 07:16:00,
2013-11-05 02:21:00,39.9,30.6,27.88,SSW,196,2.7,2.7,69,0.00,,---,0.00,VWS V14.01,2013-11-05 07:21:00,
2013-11-05 02:26:00,39.9,30.6,27.88,SSW,196,0.0,0.0,69,0.00,,---,0.00,VWS V14.01,2013-11-05 07:26:00,
2013-11-05 02:31:00,39.9,30.6,27.88,SSW,195,0.0,0.0,69,0.00,,---,0.00,VWS V14.01,2013-11-05 07:31:00,
2013-11-05 02:36:00,40.1,30.8,27.88,South,183,2.2,2.2,69,0.00,,---,0.00,VWS V14.01,2013-11-05 07:36:00,
2013-11-05 02:41:00,39.9,30.6,27.88,South,183,0.0,0.0,69,0.00,,---,0.00,VWS V14.01,2013-11-05 07:41:00,
2013-11-05 02:46:00,39.7,30.8,27.88,South,183,0.0,0.0,70,0.00,,---,0.00,VWS V14.01,2013-11-05 07:46:00,
2013-11-05 02:51:00,39.6,30.6,27.88,South,183,0.0,0.0,70,0.00,,---,0.00,VWS V14.01,2013-11-05 07:51:00,
2013-11-05 02:56:00,39.4,30.4,27.88,South,183,0.0,0.0,70,0.00,,---,0.00,VWS V14.01,2013-11-05 07:56:00,
2013-11-05 03:01:00,39.4,30.8,27.85,South,183,0.0,0.0,71,0.00,,---,0.00,VWS V14.01,2013-11-05 08:01:00,
2013-11-05 03:06:00,39.2,30.6,27.85,South,183,0.0,0.0,71,0.00,,---,0.00,VWS V14.01,2013-11-05 08:06:00,
2013-11-05 03:11:00,39.2,30.6,27.85,South,183,0.0,0.0,71,0.00,,---,0.00,VWS V14.01,2013-11-05 08:11:00,
2013-11-05 03:16:00,38.8,30.6,27.85,South,183,0.0,0.0,72,0.00,,---,0.00,VWS V14.01,2013-11-05 08:16:00,
2013-11-05 03:21:00,38.7,30.4,27.85,South,183,0.0,0.0,72,0.00,,---,0.00,VWS V14.01,2013-11-05 08:21:00,
2013-11-05 03:26:00,38.7,30.4,27.85,South,183,0.0,0.0,72,0.00,,---,0.00,VWS V14.01,2013-11-05 08:26:00,
2013-11-05 03:31:00,38.7,30.4,27.88,South,183,0.0,0.0,72,0.00,,---,0.00,VWS V14.01,2013-11-05 08:31:00,
2013-11-05 03:36:00,38.8,30.6,27.88,South,183,0.0,0.0,72,0.00,,---,0.00,VWS V14.01,2013-11-05 08:36:00,
2013-11-05 03:41:00,38.7,30.1,27.88,South,183,0.0,0.0,71,0.00,,---,0.00,VWS V14.01,2013-11-05 08:41:00,
2013-11-05 03:46:00,38.5,30.2,27.85,South,183,0.0,0.0,72,0.00,,---,0.00,VWS V14.01,2013-11-05 08:46:00,
2013-11-05 03:51:00,38.1,30.2,27.85,South,183,2.2,2.7,73,0.00,,---,0.00,VWS V14.01,2013-11-05 08:51:00,
2013-11-05 03:56:00,38.1,30.2,27.85,South,183,0.0,0.0,73,0.00,,---,0.00,VWS V14.01,2013-11-05 08:56:00,
2013-11-05 04:01:00,38.5,30.6,27.85,South,183,0.0,0.0,73,0.00,,---,0.00,VWS V14.01,2013-11-05 09:01:00,
2013-11-05 04:06:00,38.5,30.6,27.85,South,183,0.0,0.0,73,0.00,,---,0.00,VWS V14.01,2013-11-05 09:06:00,
2013-11-05 04:11:00,38.1,30.2,27.85,South,183,0.0,0.0,73,0.00,,---,0.00,VWS V14.01,2013-11-05 09:11:00,
2013-11-05 04:16:00,38.1,30.6,27.85,South,183,0.0,0.0,74,0.00,,---,0.00,VWS V14.01,2013-11-05 09:16:00,
2013-11-05 04:21:00,38.3,30.4,27.85,South,183,0.0,0.0,73,0.00,,---,0.00,VWS V14.01,2013-11-05 09:21:00,
2013-11-05 04:26:00,38.3,30.1,27.85,East,91,0.0,0.0,72,0.00,,---,0.00,VWS V14.01,2013-11-05 09:26:00,
2013-11-05 04:31:00,38.1,29.9,27.88,East,91,0.0,0.0,72,0.00,,---,0.00,VWS V14.01,2013-11-05 09:31:00,
2013-11-05 04:36:00,37.8,29.9,27.88,East,91,0.0,0.0,73,0.00,,---,0.00,VWS V14.01,2013-11-05 09:36:00,
2013-11-05 04:41:00,37.6,29.4,27.88,East,91,0.0,0.0,72,0.00,,---,0.00,VWS V14.01,2013-11-05 09:41:00,
2013-11-05 04:46:00,37.2,29.4,27.88,East,91,0.0,0.0,73,0.00,,---,0.00,VWS V14.01,2013-11-05 09:46:00,
2013-11-05 04:51:00,37.0,29.2,27.88,East,91,0.0,0.0,73,0.00,,---,0.00,VWS V14.01,2013-11-05 09:51:00,
2013-11-05 04:56:00,36.9,29.4,27.88,East,91,0.0,0.0,74,0.00,,---,0.00,VWS V14.01,2013-11-05 09:56:00,
2013-11-05 05:01:00,36.7,29.2,27.88,East,91,0.0,0.0,74,0.00,,---,0.00,VWS V14.01,2013-11-05 10:01:00,
2013-11-05 05:06:00,36.5,29.3,27.88,East,91,0.0,0.0,75,0.00,,---,0.00,VWS V14.01,2013-11-05 10:06:00,
2013-11-05 05:11:00,36.5,29.3,27.88,East,91,0.0,0.0,75,0.00,,---,0.00,VWS V14.01,2013-11-05 10:11:00,
2013-11-05 05:16:00,36.5,29.7,27.88,East,91,0.0,0.0,76,0.00,,---,0.00,VWS V14.01,2013-11-05 10:16:00,
2013-11-05 05:21:00,36.3,29.5,27.88,East,91,2.2,2.7,76,0.00,,---,0.00,VWS V14.01,2013-11-05 10:21:00,
2013-11-05 05:26:00,36.1,29.0,27.88,East,91,0.0,0.0,75,0.00,,---,0.00,VWS V14.01,2013-11-05 10:26:00,
2013-11-05 05:31:00,36.3,29.2,27.85,East,91,0.0,0.0,75,0.00,,---,0.00,VWS V14.01,2013-11-05 10:31:00,
2013-11-05 05:36:00,36.1,29.3,27.85,East,91,0.0,0.0,76,0.00,,---,0.00,VWS V14.01,2013-11-05 10:36:00,
2013-11-05 05:41:00,36.1,29.6,27.85,East,91,0.0,0.0,77,0.00,,---,0.00,VWS V14.01,2013-11-05 10:41:00,
2013-11-05 05:46:00,36.1,29.6,27.88,East,91,0.0,0.0,77,0.00,,---,0.00,VWS V14.01,2013-11-05 10:46:00,
2013-11-05 05:51:00,36.3,29.8,27.88,East,91,0.0,0.0,77,0.00,,---,0.00,VWS V14.01,2013-11-05 10:51:00,
2013-11-05 05:56:00,36.5,30.0,27.88,East,91,0.0,0.0,77,0.00,,---,0.00,VWS V14.01,2013-11-05 10:56:00,
2013-11-05 06:00:00,36.5,30.0,27.88,East,91,0.0,0.0,77,0.00,,---,0.00,VWS V14.01,2013-11-05 11:00:00,
2013-11-05 06:05:00,36.7,30.2,27.88,East,91,0.0,0.0,77,0.00,,---,0.00,VWS V14.01,2013-11-05 11:05:00,
2013-11-05 06:10:00,36.7,30.2,27.88,East,91,0.0,0.0,77,0.00,,---,0.00,VWS V14.01,2013-11-05 11:10:00,
2013-11-05 06:15:00,36.9,30.6,27.88,East,91,0.0,0.0,78,0.00,,---,0.00,VWS V14.01,2013-11-05 11:15:00,
2013-11-05 06:20:00,36.9,30.3,27.88,East,91,0.0,0.0,77,0.00,,---,0.00,VWS V14.01,2013-11-05 11:20:00,
2013-11-05 06:25:00,37.0,30.5,27.88,East,91,0.0,0.0,77,0.00,,---,0.00,VWS V14.01,2013-11-05 11:25:00,
2013-11-05 06:30:00,37.2,30.7,27.88,East,91,0.0,0.0,77,0.00,,---,0.00,VWS V14.01,2013-11-05 11:30:00,
2013-11-05 06:35:00,37.4,30.5,27.88,East,91,0.0,0.0,76,0.00,,---,0.00,VWS V14.01,2013-11-05 11:35:00,
2013-11-05 06:40:00,37.4,30.5,27.88,East,91,0.0,0.0,76,0.00,,---,0.00,VWS V14.01,2013-11-05 11:40:00,
2013-11-05 06:45:00,37.4,30.9,27.88,East,91,0.0,0.0,77,0.00,,---,0.00,VWS V14.01,2013-11-05 11:45:00,
2013-11-05 06:50:00,37.2,30.7,27.88,East,91,0.0,0.0,77,0.00,,---,0.00,VWS V14.01,2013-11-05 11:50:00,
2013-11-05 06:55:00,37.0,30.8,27.88,East,91,0.0,0.0,78,0.00,,---,0.00,VWS V14.01,2013-11-05 11:55:00,
2013-11-05 07:00:00,37.2,31.0,27.88,East,91,0.0,0.0,78,0.00,,---,0.00,VWS V14.01,2013-11-05 12:00:00,
2013-11-05 07:05:00,37.2,31.0,27.88,East,91,0.0,0.0,78,0.00,,---,0.00,VWS V14.01,2013-11-05 12:05:00,
2013-11-05 07:10:00,37.2,31.0,27.88,East,91,0.0,0.0,78,0.00,,---,0.00,VWS V14.01,2013-11-05 12:10:00,
2013-11-05 07:15:00,37.0,30.8,27.88,East,91,0.0,0.0,78,0.00,,---,0.00,VWS V14.01,2013-11-05 12:15:00,
2013-11-05 07:20:00,37.0,30.8,27.88,East,91,0.0,0.0,78,0.00,,---,0.00,VWS V14.01,2013-11-05 12:20:00,
2013-11-05 07:25:00,37.0,31.1,27.88,East,91,0.0,0.0,79,0.00,,---,0.00,VWS V14.01,2013-11-05 12:25:00,
2013-11-05 07:30:00,37.2,31.3,27.88,East,91,0.0,0.0,79,0.00,,---,0.00,VWS V14.01,2013-11-05 12:30:00,
2013-11-05 07:35:00,37.4,31.2,27.88,East,91,0.0,0.0,78,0.00,,---,0.00,VWS V14.01,2013-11-05 12:35:00,
2013-11-05 07:40:00,37.6,31.0,27.88,East,91,0.0,0.0,77,0.00,,---,0.00,VWS V14.01,2013-11-05 12:40:00,
2013-11-05 07:45:00,37.8,30.9,27.88,East,91,0.0,0.0,76,0.00,,---,0.00,VWS V14.01,2013-11-05 12:45:00,
2013-11-05 07:50:00,38.1,31.2,27.88,East,91,0.0,0.0,76,0.00,,---,0.00,VWS V14.01,2013-11-05 12:50:00,
2013-11-05 07:55:00,38.5,31.6,27.88,East,91,0.0,0.0,76,0.00,,---,0.00,VWS V14.01,2013-11-05 12:55:00,
2013-11-05 08:00:00,38.7,31.8,27.88,East,91,3.1,3.1,76,0.00,,---,0.00,VWS V14.01,2013-11-05 13:00:00,
2013-11-05 08:05:00,39.0,31.8,27.88,East,91,2.2,2.7,75,0.00,,---,0.00,VWS V14.01,2013-11-05 13:05:00,
2013-11-05 08:10:00,39.2,32.0,27.88,East,91,0.0,0.0,75,0.00,,---,0.00,VWS V14.01,2013-11-05 13:10:00,
2013-11-05 08:15:00,39.6,32.3,27.88,East,91,0.0,0.0,75,0.00,,---,0.00,VWS V14.01,2013-11-05 13:15:00,
2013-11-05 08:20:00,39.9,32.7,27.88,East,91,3.1,3.1,75,0.00,,---,0.00,VWS V14.01,2013-11-05 13:20:00,
2013-11-05 08:25:00,40.3,33.0,27.88,East,91,0.0,0.0,75,0.00,,---,0.00,VWS V14.01,2013-11-05 13:25:00,
2013-11-05 08:30:00,40.5,32.8,27.91,East,91,2.2,2.7,74,0.00,,---,0.00,VWS V14.01,2013-11-05 13:30:00,
2013-11-05 08:35:00,40.8,33.2,27.91,East,91,0.0,0.0,74,0.00,,---,0.00,VWS V14.01,2013-11-05 13:35:00,
2013-11-05 08:40:00,41.2,33.2,27.91,East,91,0.0,0.0,73,0.00,,---,0.00,VWS V14.01,2013-11-05 13:40:00,
2013-11-05 08:45:00,41.7,33.4,27.91,East,91,0.0,0.0,72,0.00,,---,0.00,VWS V14.01,2013-11-05 13:45:00,
2013-11-05 08:50:00,42.4,34.1,27.91,East,91,0.0,0.0,72,0.00,,---,0.00,VWS V14.01,2013-11-05 13:50:00,
2013-11-05 08:55:00,43.0,34.2,27.91,East,91,3.1,3.1,71,0.00,,---,0.00,VWS V14.01,2013-11-05 13:55:00,
2013-11-05 09:00:00,43.9,34.0,27.91,East,91,2.7,2.7,68,0.00,,---,0.00,VWS V14.01,2013-11-05 14:00:00,
2013-11-05 09:05:00,44.2,34.0,27.91,East,93,3.1,3.1,67,0.00,,---,0.00,VWS V14.01,2013-11-05 14:05:00,
2013-11-05 09:10:00,44.2,33.6,27.91,East,93,0.0,2.7,66,0.00,,---,0.00,VWS V14.01,2013-11-05 14:10:00,
2013-11-05 09:15:00,44.4,33.0,27.91,East,93,2.7,2.7,64,0.00,,---,0.00,VWS V14.01,2013-11-05 14:15:00,
2013-11-05 09:20:00,44.2,32.8,27.91,East,93,0.0,0.0,64,0.00,,---,0.00,VWS V14.01,2013-11-05 14:20:00,
2013-11-05 09:25:00,44.8,33.0,27.91,East,93,2.2,2.7,63,0.00,,---,0.00,VWS V14.01,2013-11-05 14:25:00,
2013-11-05 09:30:00,45.0,33.1,27.91,East,101,3.6,3.6,63,0.00,,---,0.00,VWS V14.01,2013-11-05 14:30:00,
2013-11-05 09:35:00,44.8,32.6,27.91,East,101,0.0,0.0,62,0.00,,---,0.00,VWS V14.01,2013-11-05 14:35:00,
2013-11-05 09:40:00,45.0,32.7,27.91,East,101,0.0,2.2,62,0.00,,---,0.00,VWS V14.01,2013-11-05 14:40:00,
2013-11-05 09:45:00,45.3,33.1,27.91,ENE,62,0.0,2.7,62,0.00,,---,0.00,VWS V14.01,2013-11-05 14:45:00,
2013-11-05 09:50:00,46.4,33.7,27.91,ENE,62,0.0,0.0,61,0.00,,---,0.00,VWS V14.01,2013-11-05 14:50:00,
2013-11-05 09:55:00,47.7,34.5,27.91,ENE,62,0.0,0.0,60,0.00,,---,0.00,VWS V14.01,2013-11-05 14:55:00,
2013-11-05 10:00:00,48.7,34.2,27.88,SSE,151,0.0,0.0,57,0.00,,---,0.00,VWS V14.01,2013-11-05 15:00:00,
2013-11-05 10:05:00,50.0,34.9,27.88,NE,49,2.2,3.6,56,0.00,,---,0.00,VWS V14.01,2013-11-05 15:05:00,
2013-11-05 10:10:00,50.9,34.9,27.88,NE,55,2.2,2.2,54,0.00,,---,0.00,VWS V14.01,2013-11-05 15:10:00,
2013-11-05 10:15:00,52.0,34.9,27.88,ENE,77,2.2,4.9,52,0.00,,---,0.00,VWS V14.01,2013-11-05 15:15:00,
2013-11-05 10:20:00,53.2,35.6,27.88,East,89,2.7,3.1,51,0.00,,---,0.00,VWS V14.01,2013-11-05 15:20:00,
2013-11-05 10:25:00,54.1,35.4,27.88,ESE,112,2.2,2.2,49,0.00,,---,0.00,VWS V14.01,2013-11-05 15:25:00,
2013-11-05 10:30:00,54.5,35.2,27.88,East,95,3.6,4.0,48,0.00,,---,0.00,VWS V14.01,2013-11-05 15:30:00,
2013-11-05 10:35:00,54.3,33.5,27.88,ESE,107,2.2,3.1,45,0.00,,---,0.00,VWS V14.01,2013-11-05 15:35:00,
2013-11-05 10:40:00,54.1,33.3,27.88,NE,46,3.1,3.1,45,0.00,,---,0.00,VWS V14.01,2013-11-05 15:40:00,
2013-11-05 10:45:00,53.8,32.4,27.88,ESE,106,2.7,4.0,44,0.00,,---,0.00,VWS V14.01,2013-11-05 15:45:00,
2013-11-05 10:50:00,53.1,31.2,27.88,ENE,72,2.7,3.6,43,0.00,,---,0.00,VWS V14.01,2013-11-05 15:50:00,
2013-11-05 10:55:00,52.7,31.4,27.88,ESE,104,2.7,3.1,44,0.00,,---,0.00,VWS V14.01,2013-11-05 15:55:00,
2013-11-05 11:00:00,52.7,32.5,27.88,ESE,113,2.7,2.7,46,0.00,,---,0.00,VWS V14.01,2013-11-05 16:00:00,
2013-11-05 11:05:00,52.5,31.2,27.88,NE,48,3.6,5.8,44,0.00,,---,0.00,VWS V14.01,2013-11-05 16:05:00,
2013-11-05 11:10:00,52.0,30.8,27.88,South,178,0.0,0.0,44,0.00,,---,0.00,VWS V14.01,2013-11-05 16:10:00,
2013-11-05 11:15:00,52.9,32.1,27.88,South,174,2.7,3.6,45,0.00,,---,0.00,VWS V14.01,2013-11-05 16:15:00,
2013-11-05 11:20:00,53.2,33.0,27.88,SE,134,2.2,6.3,46,0.00,,---,0.00,VWS V14.01,2013-11-05 16:20:00,
2013-11-05 11:25:00,52.9,32.1,27.88,East,83,4.0,4.9,45,0.00,,---,0.00,VWS V14.01,2013-11-05 16:25:00,
2013-11-05 11:30:00,53.1,31.7,27.88,SE,135,2.7,3.1,44,0.00,,---,0.00,VWS V14.01,2013-11-05 16:30:00,
2013-11-05 11:35:00,53.6,31.1,27.88,NNE,29,3.6,4.9,42,0.00,,---,0.00,VWS V14.01,2013-11-05 16:35:00,
2013-11-05 11:40:00,54.3,31.7,27.88,SE,139,0.0,0.0,42,0.00,,---,0.00,VWS V14.01,2013-11-05 16:40:00,
2013-11-05 11:45:00,54.9,31.6,27.88,ESE,118,2.2,3.1,41,0.00,,---,0.00,VWS V14.01,2013-11-05 16:45:00,
2013-11-05 11:50:00,55.0,31.2,27.88,SE,129,2.2,5.8,40,0.00,,---,0.00,VWS V14.01,2013-11-05 16:50:00,
2013-11-05 11:55:00,55.0,31.2,27.88,ENE,63,3.6,5.4,40,0.00,,---,0.00,VWS V14.01,2013-11-05 16:55:00,
2013-11-05 12:00:00,54.9,30.4,27.85,ESE,122,2.7,3.6,39,0.00,,---,0.00,VWS V14.01,2013-11-05 17:00:00,
2013-11-05 12:05:00,55.0,30.5,27.85,SE,126,4.0,4.0,39,0.00,,---,0.00,VWS V14.01,2013-11-05 17:05:00,
2013-11-05 12:10:00,55.4,30.2,27.85,ESE,115,3.6,3.6,38,0.00,,---,0.00,VWS V14.01,2013-11-05 17:10:00,
2013-11-05 12:15:00,55.8,30.6,27.88,NE,54,6.3,6.3,38,0.00,,---,0.00,VWS V14.01,2013-11-05 17:15:00,
2013-11-05 12:20:00,55.9,30.1,27.88,ESE,122,3.6,4.9,37,0.00,,---,0.00,VWS V14.01,2013-11-05 17:20:00,
2013-11-05 12:25:00,56.5,30.5,27.88,NNE,20,3.1,7.2,37,0.00,,---,0.00,VWS V14.01,2013-11-05 17:25:00,
2013-11-05 12:30:00,56.7,30.7,27.85,South,177,2.2,3.1,37,0.00,,---,0.00,VWS V14.01,2013-11-05 17:30:00,
2013-11-05 12:35:00,57.2,31.2,27.85,SSE,163,3.6,3.6,37,0.00,,---,0.00,VWS V14.01,2013-11-05 17:35:00,
2013-11-05 12:40:00,58.3,32.2,27.85,SE,128,3.6,3.6,37,0.00,,---,0.00,VWS V14.01,2013-11-05 17:40:00,
2013-11-05 12:45:00,58.6,31.8,27.85,ENE,67,2.7,5.4,36,0.00,,---,0.00,VWS V14.01,2013-11-05 17:45:00,
2013-11-05 12:50:00,58.6,31.8,27.85,SE,131,4.0,5.8,36,0.00,,---,0.00,VWS V14.01,2013-11-05 17:50:00,
2013-11-05 12:55:00,58.5,31.6,27.85,SE,141,2.2,2.7,36,0.00,,---,0.00,VWS V14.01,2013-11-05 17:55:00,
2013-11-05 13:00:00,58.8,32.0,27.85,SSE,162,3.1,5.4,36,0.00,,---,0.00,VWS V14.01,2013-11-05 18:00:00,
2013-11-05 13:05:00,58.8,32.0,27.85,ENE,68,2.2,3.6,36,0.00,,---,0.00,VWS V14.01,2013-11-05 18:05:00,
2013-11-05 13:10:00,58.1,31.3,27.85,ENE,61,3.6,4.9,36,0.00,,---,0.00,VWS V14.01,2013-11-05 18:10:00,
2013-11-05 13:15:00,57.9,31.1,27.85,East,100,2.7,2.7,36,0.00,,---,0.00,VWS V14.01,2013-11-05 18:15:00,
2013-11-05 13:20:00,57.6,30.1,27.85,ENE,60,3.1,3.6,35,0.00,,---,0.00,VWS V14.01,2013-11-05 18:20:00,
2013-11-05 13:25:00,57.2,29.8,27.85,ENE,64,3.6,3.6,35,0.00,,---,0.00,VWS V14.01,2013-11-05 18:25:00,
2013-11-05 13:30:00,57.9,30.5,27.85,ENE,63,3.1,4.0,35,0.00,,---,0.00,VWS V14.01,2013-11-05 18:30:00,
2013-11-05 13:35:00,58.3,30.8,27.85,NE,54,4.0,4.0,35,0.00,,---,0.00,VWS V14.01,2013-11-05 18:35:00,
2013-11-05 13:40:00,57.2,29.8,27.85,SE,126,3.6,3.6,35,0.00,,---,0.00,VWS V14.01,2013-11-05 18:40:00,
2013-11-05 13:45:00,57.0,29.7,27.82,ESE,111,2.7,2.7,35,0.00,,---,0.00,VWS V14.01,2013-11-05 18:45:00,
2013-11-05 13:50:00,57.2,29.8,27.82,ESE,120,2.7,3.1,35,0.00,,---,0.00,VWS V14.01,2013-11-05 18:50:00,
2013-11-05 13:55:00,57.7,30.3,27.82,NE,41,3.6,4.0,35,0.00,,---,0.00,VWS V14.01,2013-11-05 18:55:00,
2013-11-05 14:00:00,57.7,30.3,27.82,ESE,105,5.4,5.4,35,0.00,,---,0.00,VWS V14.01,2013-11-05 19:00:00,
2013-11-05 14:05:00,57.6,30.1,27.82,East,98,2.7,2.7,35,0.00,,---,0.00,VWS V14.01,2013-11-05 19:05:00,
2013-11-05 14:10:00,57.4,30.0,27.82,NNE,26,5.4,5.4,35,0.00,,---,0.00,VWS V14.01,2013-11-05 19:10:00,
2013-11-05 14:15:00,57.4,30.0,27.82,ESE,122,2.2,2.2,35,0.00,,---,0.00,VWS V14.01,2013-11-05 19:15:00,
2013-11-05 14:20:00,57.9,30.5,27.82,ESE,123,3.6,3.6,35,0.00,,---,0.00,VWS V14.01,2013-11-05 19:20:00,
2013-11-05 14:25:00,58.3,30.8,27.82,SE,139,3.1,3.1,35,0.00,,---,0.00,VWS V14.01,2013-11-05 19:25:00,
2013-11-05 14:30:00,58.1,30.6,27.82,East,101,4.0,4.0,35,0.00,,---,0.00,VWS V14.01,2013-11-05 19:30:00,
2013-11-05 14:35:00,57.9,30.5,27.82,ENE,69,4.0,4.0,35,0.00,,---,0.00,VWS V14.01,2013-11-05 19:35:00,
2013-11-05 14:40:00,57.9,30.5,27.82,ENE,67,4.0,4.0,35,0.00,,---,0.00,VWS V14.01,2013-11-05 19:40:00,
2013-11-05 14:45:00,57.9,29.7,27.82,NNE,27,2.7,3.6,34,0.00,,---,0.00,VWS V14.01,2013-11-05 19:45:00,
2013-11-05 14:50:00,57.9,30.5,27.82,NNE,23,2.7,3.1,35,0.00,,---,0.00,VWS V14.01,2013-11-05 19:50:00,
2013-11-05 14:55:00,57.9,30.5,27.82,NNE,22,3.1,3.6,35,0.00,,---,0.00,VWS V14.01,2013-11-05 19:55:00,
2013-11-05 15:00:00,57.6,30.1,27.82,ESE,107,3.6,3.6,35,0.00,,---,0.00,VWS V14.01,2013-11-05 20:00:00,
2013-11-05 15:05:00,57.6,30.1,27.82,ESE,123,0.0,0.0,35,0.00,,---,0.00,VWS V14.01,2013-11-05 20:05:00,
2013-11-05 15:10:00,57.6,30.1,27.82,ESE,121,2.2,2.7,35,0.00,,---,0.00,VWS V14.01,2013-11-05 20:10:00,
2013-11-05 15:15:00,57.7,30.3,27.82,ESE,121,0.0,2.2,35,0.00,,---,0.00,VWS V14.01,2013-11-05 20:15:00,
2013-11-05 15:20:00,57.6,30.1,27.82,East,92,4.9,4.9,35,0.00,,---,0.00,VWS V14.01,2013-11-05 20:20:00,
2013-11-05 15:25:00,57.0,29.7,27.82,SE,128,4.0,4.0,35,0.00,,---,0.00,VWS V14.01,2013-11-05 20:25:00,
2013-11-05 15:30:00,56.5,29.2,27.82,NE,38,2.7,3.1,35,0.00,,---,0.00,VWS V14.01,2013-11-05 20:30:00,
2013-11-05 15:35:00,56.1,28.9,27.82,NE,38,2.7,3.1,35,0.00,,---,0.00,VWS V14.01,2013-11-05 20:35:00,
2013-11-05 15:40:00,55.9,28.7,27.82,ENE,77,3.1,3.6,35,0.00,,---,0.00,VWS V14.01,2013-11-05 20:40:00,
2013-11-05 15:45:00,55.6,29.1,27.82,ENE,77,2.2,2.2,36,0.00,,---,0.00,VWS V14.01,2013-11-05 20:45:00,
2013-11-05 15:50:00,55.2,29.4,27.82,ENE,77,2.7,3.1,37,0.00,,---,0.00,VWS V14.01,2013-11-05 20:50:00,
2013-11-05 15:55:00,54.7,28.9,27.82,South,183,3.1,3.1,37,0.00,,---,0.00,VWS V14.01,2013-11-05 20:55:00,
2013-11-05 16:00:00,54.3,28.6,27.82,ESE,104,2.7,3.6,37,0.00,,---,0.00,VWS V14.01,2013-11-05 21:00:00,
2013-11-05 16:05:00,54.3,29.3,27.82,ESE,104,0.0,0.0,38,0.00,,---,0.00,VWS V14.01,2013-11-05 21:05:00,
2013-11-05 16:10:00,54.3,29.9,27.82,ESE,104,3.1,3.1,39,0.00,,---,0.00,VWS V14.01,2013-11-05 21:10:00,
2013-11-05 16:15:00,54.1,30.4,27.82,ESE,119,0.0,2.2,40,0.00,,---,0.00,VWS V14.01,2013-11-05 21:15:00,
2013-11-05 16:20:00,54.0,30.8,27.82,East,91,3.1,4.0,41,0.00,,---,0.00,VWS V14.01,2013-11-05 21:20:00,
2013-11-05 16:25:00,53.8,30.6,27.82,East,92,0.0,0.0,41,0.00,,---,0.00,VWS V14.01,2013-11-05 21:25:00,
2013-11-05 16:30:00,53.6,31.7,27.82,East,97,0.0,0.0,43,0.00,,---,0.00,VWS V14.01,2013-11-05 21:30:00,
2013-11-05 16:35:00,53.4,32.1,27.82,East,97,0.0,2.2,44,0.00,,---,0.00,VWS V14.01,2013-11-05 21:35:00,
2013-11-05 16:40:00,52.9,32.1,27.82,East,86,4.0,4.0,45,0.00,,---,0.00,VWS V14.01,2013-11-05 21:40:00,
2013-11-05 16:45:00,52.7,32.0,27.82,NE,46,3.1,3.1,45,0.00,,---,0.00,VWS V14.01,2013-11-05 21:45:00,
2013-11-05 16:50:00,52.3,32.2,27.82,NE,46,3.1,3.1,46,0.00,,---,0.00,VWS V14.01,2013-11-05 21:50:00,
2013-11-05 16:55:00,51.8,32.2,27.82,South,185,3.1,3.1,47,0.00,,---,0.00,VWS V14.01,2013-11-05 21:55:00,
2013-11-05 17:00:00,51.4,32.4,27.82,ESE,113,0.0,0.0,48,0.00,,---,0.00,VWS V14.01,2013-11-05 22:00:00,
2013-11-05 17:05:00,50.9,32.4,27.82,SE,125,3.1,3.1,49,0.00,,---,0.00,VWS V14.01,2013-11-05 22:05:00,
2013-11-05 17:10:00,50.5,32.1,27.82,SE,125,0.0,2.7,49,0.00,,---,0.00,VWS V14.01,2013-11-05 22:10:00,
2013-11-05 17:15:00,50.2,32.3,27.82,East,82,2.7,2.7,50,0.00,,---,0.00,VWS V14.01,2013-11-05 22:15:00,
2013-11-05 17:20:00,49.8,32.4,27.82,NNE,29,0.0,2.7,51,0.00,,---,0.00,VWS V14.01,2013-11-05 22:20:00,
2013-11-05 17:25:00,49.5,32.6,27.82,NNE,29,0.0,2.2,52,0.00,,---,0.00,VWS V14.01,2013-11-05 22:25:00,
2013-11-05 17:30:00,49.1,32.7,27.82,NNE,29,0.0,0.0,53,0.00,,---,0.00,VWS V14.01,2013-11-05 22:30:00,
2013-11-05 17:35:00,48.7,32.8,27.82,NNE,29,0.0,0.0,54,0.00,,---,0.00,VWS V14.01,2013-11-05 22:35:00,
2013-11-05 17:40:00,48.4,32.5,27.82,SSW,212,0.0,0.0,54,0.00,,---,0.00,VWS V14.01,2013-11-05 22:40:00,
2013-11-05 17:45:00,48.0,33.1,27.82,SSW,212,0.0,0.0,56,0.00,,---,0.00,VWS V14.01,2013-11-05 22:45:00,
2013-11-05 17:50:00,48.0,33.1,27.82,SSW,212,0.0,0.0,56,0.00,,---,0.00,VWS V14.01,2013-11-05 22:50:00,
2013-11-05 17:55:00,47.8,33.4,27.82,SSW,212,0.0,0.0,57,0.00,,---,0.00,VWS V14.01,2013-11-05 22:55:00,
2013-11-05 18:00:00,47.7,33.2,27.82,SSW,212,0.0,0.0,57,0.00,,---,0.00,VWS V14.01,2013-11-05 23:00:00,
2013-11-05 18:05:00,47.3,33.3,27.82,SSW,212,0.0,0.0,58,0.00,,---,0.00,VWS V14.01,2013-11-05 23:05:00,
2013-11-05 18:10:00,47.1,33.5,27.82,SSW,211,0.0,0.0,59,0.00,,---,0.00,VWS V14.01,2013-11-05 23:10:00,
2013-11-05 18:15:00,47.3,33.3,27.82,SSW,211,0.0,0.0,58,0.00,,---,0.00,VWS V14.01,2013-11-05 23:15:00,
2013-11-05 18:20:00,47.1,33.1,27.82,SSW,211,0.0,0.0,58,0.00,,---,0.00,VWS V14.01,2013-11-05 23:20:00,
2013-11-05 18:25:00,46.6,33.0,27.82,SSW,211,0.0,0.0,59,0.00,,---,0.00,VWS V14.01,2013-11-05 23:25:00,
2013-11-05 18:30:00,46.4,33.3,27.82,SSW,211,0.0,0.0,60,0.00,,---,0.00,VWS V14.01,2013-11-05 23:30:00,
2013-11-05 18:35:00,46.2,33.5,27.82,SSW,211,0.0,0.0,61,0.00,,---,0.00,VWS V14.01,2013-11-05 23:35:00,
2013-11-05 18:40:00,46.0,33.4,27.82,SSW,211,0.0,0.0,61,0.00,,---,0.00,VWS V14.01,2013-11-05 23:40:00,
2013-11-05 18:45:00,45.9,33.6,27.82,SSW,213,0.0,0.0,62,0.00,,---,0.00,VWS V14.01,2013-11-05 23:45:00,
2013-11-05 18:50:00,45.3,33.1,27.82,SSW,213,0.0,0.0,62,0.00,,---,0.00,VWS V14.01,2013-11-05 23:50:00,
2013-11-05 18:55:00,45.1,33.3,27.82,SSW,213,0.0,0.0,63,0.00,,---,0.00,VWS V14.01,2013-11-05 23:55:00,
2013-11-05 19:00:00,44.8,33.0,27.82,SSW,213,0.0,0.0,63,0.00,,---,0.00,VWS V14.01,2013-11-06 00:00:00,
2013-11-05 19:05:00,44.8,33.4,27.82,SSW,213,2.2,2.2,64,0.00,,---,0.00,VWS V14.01,2013-11-06 00:05:00,
2013-11-05 19:10:00,44.8,33.8,27.82,SSW,213,2.2,2.2,65,0.00,,---,0.00,VWS V14.01,2013-11-06 00:10:00,
2013-11-05 19:15:00,44.6,33.6,27.82,SW,216,2.2,2.2,65,0.00,,---,0.00,VWS V14.01,2013-11-06 00:15:00,
2013-11-05 19:20:00,44.6,34.0,27.82,SW,216,2.7,3.1,66,0.00,,---,0.00,VWS V14.01,2013-11-06 00:20:00,
2013-11-05 19:25:00,44.6,34.3,27.82,SW,216,0.0,0.0,67,0.00,,---,0.00,VWS V14.01,2013-11-06 00:25:00,
2013-11-05 19:30:00,44.4,34.5,27.82,SW,216,0.0,2.2,68,0.00,,---,0.00,VWS V14.01,2013-11-06 00:30:00,
2013-11-05 19:35:00,44.2,34.4,27.82,SW,216,2.7,2.7,68,0.00,,---,0.00,VWS V14.01,2013-11-06 00:35:00,
2013-11-05 19:40:00,44.2,34.7,27.82,SW,216,2.2,2.7,69,0.00,,---,0.00,VWS V14.01,2013-11-06 00:40:00,
2013-11-05 19:45:00,44.2,34.7,27.82,SW,216,2.2,2.2,69,0.00,,---,0.00,VWS V14.01,2013-11-06 00:45:00,
2013-11-05 19:50:00,44.6,35.1,27.82,SW,216,2.2,2.2,69,0.00,,---,0.00,VWS V14.01,2013-11-06 00:50:00,
2013-11-05 19:55:00,44.8,35.6,27.82,SW,216,0.0,0.0,70,0.00,,---,0.00,VWS V14.01,2013-11-06 00:55:00,
2013-11-05 20:00:00,44.8,35.6,27.82,SW,216,0.0,0.0,70,0.00,,---,0.00,VWS V14.01,2013-11-06 01:00:00,
2013-11-05 20:05:00,45.1,36.0,27.82,SW,216,0.0,0.0,70,0.00,,---,0.00,VWS V14.01,2013-11-06 01:05:00,
2013-11-05 20:10:00,45.1,36.0,27.82,SW,216,0.0,0.0,70,0.00,,---,0.00,VWS V14.01,2013-11-06 01:10:00,
2013-11-05 20:15:00,45.1,36.0,27.82,SW,216,0.0,0.0,70,0.00,,---,0.00,VWS V14.01,2013-11-06 01:15:00,
2013-11-05 20:20:00,45.3,36.1,27.82,SW,216,0.0,0.0,70,0.00,,---,0.00,VWS V14.01,2013-11-06 01:20:00,
2013-11-05 20:25:00,45.5,36.3,27.82,SW,216,0.0,0.0,70,0.00,,---,0.00,VWS V14.01,2013-11-06 01:25:00,
2013-11-05 20:30:00,45.3,36.1,27.82,SW,216,0.0,0.0,70,0.00,,---,0.00,VWS V14.01,2013-11-06 01:30:00,
2013-11-05 20:35:00,45.3,36.5,27.82,SW,216,0.0,0.0,71,0.00,,---,0.00,VWS V14.01,2013-11-06 01:35:00,
2013-11-05 20:40:00,45.3,36.5,27.82,SW,216,0.0,0.0,71,0.00,,---,0.00,VWS V14.01,2013-11-06 01:40:00,
2013-11-05 20:45:00,45.3,36.5,27.82,SW,216,0.0,0.0,71,0.00,,---,0.00,VWS V14.01,2013-11-06 01:45:00,
2013-11-05 20:50:00,45.3,36.5,27.82,SW,216,0.0,0.0,71,0.00,,---,0.00,VWS V14.01,2013-11-06 01:50:00,
2013-11-05 20:55:00,45.3,36.8,27.82,SW,216,0.0,0.0,72,0.00,,---,0.00,VWS V14.01,2013-11-06 01:55:00,
2013-11-05 21:00:00,45.1,36.7,27.85,SW,216,0.0,0.0,72,0.00,,---,0.00,VWS V14.01,2013-11-06 02:00:00,
2013-11-05 21:05:00,45.0,36.8,27.85,SW,216,0.0,2.2,73,0.00,,---,0.00,VWS V14.01,2013-11-06 02:05:00,
2013-11-05 21:10:00,44.8,36.7,27.85,SW,216,2.2,2.2,73,0.00,,---,0.00,VWS V14.01,2013-11-06 02:10:00,